createdAt,value
2022-11-22T00:01:23.472Z,68.30
2022-11-22T00:03:51.964Z,68.30
2022-11-22T00:06:20.428Z,68.30
2022-11-22T00:08:49.125Z,68.20
2022-11-22T00:11:18.853Z,68.40
2022-11-22T00:13:47.195Z,68.50
2022-11-22T00:16:15.918Z,68.50
2022-11-22T00:18:44.690Z,68.50
2022-11-22T00:21:13.010Z,68.40
2022-11-22T00:23:41.360Z,68.50
2022-11-22T00:26:12.133Z,68.50
2022-11-22T00:28:42.312Z,68.60
2022-11-22T00:31:10.701Z,68.50
2022-11-22T00:33:39.455Z,68.50
2022-11-22T00:36:08.600Z,68.50
2022-11-22T00:38:37.059Z,68.50
2022-11-22T00:41:05.402Z,68.60
2022-11-22T00:43:33.869Z,68.60
2022-11-22T00:46:03.836Z,68.50
2022-11-22T00:48:32.640Z,68.50
2022-11-22T00:51:00.966Z,68.50
2022-11-22T00:53:29.376Z,68.60
2022-11-22T00:55:58.047Z,68.70
2022-11-22T00:58:26.645Z,68.60
2022-11-22T01:00:57.003Z,69.50
2022-11-22T01:03:27.325Z,68.90
2022-11-22T01:05:55.762Z,68.90
2022-11-22T01:08:24.486Z,68.90
2022-11-22T01:10:58.280Z,68.90
2022-11-22T01:13:28.070Z,69.00
2022-11-22T01:16:01.772Z,69.00
2022-11-22T01:18:32.171Z,69.00
2022-11-22T01:21:00.857Z,69.10
2022-11-22T01:23:30.703Z,69.00
2022-11-22T01:25:59.416Z,69.00
2022-11-22T01:28:28.668Z,69.10
2022-11-22T01:30:57.091Z,69.10
2022-11-22T01:33:25.766Z,69.20
2022-11-22T01:35:55.957Z,69.20
2022-11-22T01:38:24.680Z,69.30
2022-11-22T01:40:53.243Z,69.50
2022-11-22T01:43:24.333Z,69.50
2022-11-22T01:45:54.387Z,69.50
2022-11-22T01:48:49.341Z,69.70
2022-11-22T01:51:26.831Z,69.80
2022-11-22T01:54:00.280Z,69.80
2022-11-22T01:56:30.784Z,69.80
2022-11-22T01:59:05.095Z,69.80
2022-11-22T02:01:34.337Z,69.90
2022-11-22T02:04:05.091Z,69.90
2022-11-22T02:06:42.631Z,69.80
2022-11-22T02:09:13.737Z,70.00
2022-11-22T02:11:48.374Z,70.80
2022-11-22T02:14:20.719Z,70.10
2022-11-22T02:16:49.825Z,70.10
2022-11-22T02:19:25.358Z,70.10
2022-11-22T02:22:00.962Z,70.10
2022-11-22T02:24:39.648Z,70.20
2022-11-22T02:27:09.720Z,70.20
2022-11-22T02:29:38.643Z,70.20
2022-11-22T02:32:07.084Z,70.20
2022-11-22T02:34:44.544Z,70.20
2022-11-22T02:37:19.196Z,70.40
2022-11-22T02:39:49.887Z,70.40
2022-11-22T02:42:20.086Z,70.40
2022-11-22T02:44:48.959Z,70.40
2022-11-22T02:47:17.370Z,70.40
2022-11-22T02:49:45.798Z,70.40
2022-11-22T02:52:18.663Z,70.40
2022-11-22T02:54:47.407Z,70.50
2022-11-22T02:57:15.854Z,70.50
2022-11-22T02:59:45.771Z,70.50
2022-11-22T03:02:14.432Z,70.50
2022-11-22T03:04:43.239Z,70.50
2022-11-22T03:07:12.022Z,70.50
2022-11-22T03:09:40.404Z,70.50
2022-11-22T03:12:08.893Z,70.50
2022-11-22T03:14:37.289Z,70.50
2022-11-22T03:17:07.145Z,70.40
2022-11-22T03:19:35.481Z,70.30
2022-11-22T03:22:04.028Z,70.30
2022-11-22T03:24:32.521Z,70.30
2022-11-22T03:27:00.839Z,70.30
2022-11-22T03:29:29.587Z,70.40
2022-11-22T03:31:58.479Z,70.40
2022-11-22T03:34:29.087Z,70.50
2022-11-22T03:36:57.463Z,70.60
2022-11-22T03:39:26.103Z,70.60
2022-11-22T03:41:56.257Z,70.60
2022-11-22T03:44:24.687Z,70.60
2022-11-22T03:46:53.125Z,70.80
2022-11-22T03:49:21.603Z,70.80
2022-11-22T03:51:51.256Z,70.80
2022-11-22T03:54:19.687Z,70.70
2022-11-22T03:56:48.022Z,70.70
2022-11-22T03:59:16.384Z,70.70
2022-11-22T04:01:44.887Z,70.70
2022-11-22T04:04:13.663Z,70.70
2022-11-22T04:06:42.021Z,70.70
2022-11-22T04:09:11.996Z,70.60
2022-11-22T04:11:40.388Z,70.70
2022-11-22T04:14:29.786Z,70.60
2022-11-22T04:16:58.383Z,70.60
2022-11-22T04:19:26.998Z,71.00
2022-11-22T04:21:54.710Z,70.50
2022-11-22T04:24:42.213Z,70.50
2022-11-22T04:27:10.820Z,70.40
2022-11-22T04:29:39.163Z,70.40
2022-11-22T04:32:25.184Z,70.30
2022-11-22T04:34:53.509Z,70.40
2022-11-22T04:37:22.267Z,70.30
2022-11-22T04:39:52.103Z,70.30
2022-11-22T04:42:38.034Z,70.40
2022-11-22T04:45:08.986Z,70.40
2022-11-22T04:47:55.020Z,70.30
2022-11-22T04:50:41.128Z,70.20
2022-11-22T04:53:09.904Z,70.20
2022-11-22T04:55:40.093Z,70.20
2022-11-22T04:58:08.595Z,70.30
2022-11-22T05:00:37.477Z,70.20
2022-11-22T05:03:08.461Z,70.10
2022-11-22T05:05:37.954Z,70.00
2022-11-22T05:08:08.109Z,70.00
2022-11-22T05:10:51.360Z,70.10
2022-11-22T05:13:23.492Z,70.10
2022-11-22T05:15:52.237Z,70.00
2022-11-22T05:18:21.164Z,70.00
2022-11-22T05:20:49.631Z,70.10
2022-11-22T05:23:36.529Z,70.00
2022-11-22T05:26:09.084Z,70.80
2022-11-22T05:28:40.151Z,70.00
2022-11-22T05:31:11.050Z,70.00
2022-11-22T05:33:42.219Z,70.00
2022-11-22T05:36:12.182Z,69.90
2022-11-22T05:38:40.994Z,70.00
2022-11-22T05:41:12.081Z,69.90
2022-11-22T05:43:42.285Z,69.90
2022-11-22T05:46:13.063Z,69.80
2022-11-22T05:48:44.036Z,69.90
2022-11-22T05:51:15.866Z,69.80
2022-11-22T05:53:45.560Z,69.70
2022-11-22T05:56:16.498Z,69.80
2022-11-22T05:58:46.992Z,69.80
2022-11-22T06:01:17.607Z,69.70
2022-11-22T06:03:46.641Z,69.50
2022-11-22T06:06:15.744Z,69.60
2022-11-22T06:08:47.799Z,69.60
2022-11-22T06:11:18.935Z,69.60
2022-11-22T06:13:51.809Z,69.60
2022-11-22T06:16:20.258Z,69.70
2022-11-22T06:18:49.374Z,69.60
2022-11-22T06:21:23.280Z,69.60
2022-11-22T06:23:52.523Z,69.60
2022-11-22T06:26:22.489Z,69.60
2022-11-22T06:28:53.221Z,69.70
2022-11-22T06:31:24.283Z,69.70
2022-11-22T06:33:54.801Z,69.70
2022-11-22T06:36:25.725Z,69.70
2022-11-22T06:38:54.904Z,69.70
2022-11-22T06:41:25.199Z,69.70
2022-11-22T06:43:57.627Z,69.70
2022-11-22T06:46:28.387Z,69.50
2022-11-22T06:48:57.179Z,69.60
2022-11-22T06:51:28.523Z,69.50
2022-11-22T06:53:58.462Z,70.30
2022-11-22T06:56:29.957Z,69.40
2022-11-22T06:59:03.786Z,69.40
2022-11-22T07:01:34.837Z,69.40
2022-11-22T07:04:04.156Z,69.40
2022-11-22T07:06:35.503Z,69.40
2022-11-22T07:09:07.065Z,69.30
2022-11-22T07:11:36.296Z,69.30
2022-11-22T07:14:08.892Z,69.30
2022-11-22T07:16:39.259Z,69.20
2022-11-22T07:19:08.469Z,69.20
2022-11-22T07:21:38.246Z,69.20
2022-11-22T07:24:08.617Z,69.10
2022-11-22T07:26:37.578Z,69.10
2022-11-22T07:29:07.542Z,69.10
2022-11-22T07:31:36.169Z,69.10
2022-11-22T07:34:04.553Z,69.10
2022-11-22T07:36:32.941Z,69.10
2022-11-22T07:39:01.390Z,69.20
2022-11-22T07:41:29.857Z,69.10
2022-11-22T07:43:58.534Z,69.00
2022-11-22T07:46:31.316Z,69.00
2022-11-22T07:49:02.587Z,69.20
2022-11-22T07:51:31.121Z,69.20
2022-11-22T07:53:59.662Z,69.10
2022-11-22T07:56:28.090Z,69.10
2022-11-22T07:58:57.346Z,69.10
2022-11-22T08:01:27.283Z,69.10
2022-11-22T08:03:55.792Z,69.10
2022-11-22T08:06:24.184Z,69.10
2022-11-22T08:08:57.053Z,69.10
2022-11-22T08:11:28.842Z,69.20
2022-11-22T08:13:57.213Z,69.10
2022-11-22T08:16:27.294Z,69.10
2022-11-22T08:18:55.686Z,69.20
2022-11-22T08:21:24.148Z,69.10
2022-11-22T08:23:52.519Z,69.00
2022-11-22T08:26:21.242Z,69.00
2022-11-22T08:28:49.598Z,69.00
2022-11-22T08:31:20.449Z,69.00
2022-11-22T08:33:54.006Z,69.00
2022-11-22T08:36:22.841Z,69.00
2022-11-22T08:38:51.434Z,69.00
2022-11-22T08:41:19.999Z,68.90
2022-11-22T08:43:51.260Z,69.00
2022-11-22T08:46:20.200Z,70.00
2022-11-22T08:48:53.318Z,69.00
2022-11-22T08:51:21.702Z,69.00
2022-11-22T08:53:50.101Z,69.00
2022-11-22T08:56:18.462Z,68.90
2022-11-22T08:58:46.974Z,68.80
2022-11-22T09:01:18.723Z,68.80
2022-11-22T09:03:49.407Z,69.00
2022-11-22T09:09:30.469Z,68.70
2022-11-22T09:11:58.173Z,68.60
2022-11-22T09:14:26.618Z,68.60
2022-11-22T09:16:55.603Z,68.70
2022-11-22T09:19:25.522Z,68.60
2022-11-22T09:21:54.156Z,68.50
2022-11-22T09:24:22.878Z,68.40
2022-11-22T09:26:51.418Z,68.50
2022-11-22T09:29:19.863Z,68.50
2022-11-22T09:31:49.390Z,68.50
2022-11-22T09:34:17.938Z,68.50
2022-11-22T09:36:47.821Z,68.40
2022-11-22T09:39:16.181Z,68.40
2022-11-22T09:42:27.024Z,68.40
2022-11-22T09:45:23.317Z,68.20
2022-11-22T09:48:09.446Z,68.10
2022-11-22T09:50:52.953Z,68.20
2022-11-22T09:53:31.159Z,68.10
2022-11-22T09:56:05.180Z,68.00
2022-11-22T09:58:38.784Z,68.80
2022-11-22T10:01:14.254Z,68.00
2022-11-22T10:03:49.430Z,68.00
2022-11-22T10:06:25.854Z,67.90
2022-11-22T10:09:07.721Z,67.90
2022-11-22T10:11:42.215Z,67.70
2022-11-22T10:14:24.207Z,67.70
2022-11-22T10:16:58.534Z,67.70
2022-11-22T10:19:38.977Z,67.70
2022-11-22T10:22:12.863Z,67.80
2022-11-22T10:24:45.408Z,67.80
2022-11-22T10:27:15.859Z,67.80
2022-11-22T10:29:53.842Z,67.70
2022-11-22T10:32:30.085Z,67.50
2022-11-22T10:35:23.920Z,67.50
2022-11-22T10:38:02.772Z,67.30
2022-11-22T10:40:43.638Z,67.50
2022-11-22T10:43:38.499Z,67.40
2022-11-22T10:46:15.328Z,67.20
2022-11-22T10:48:51.817Z,67.40
2022-11-22T10:51:29.952Z,67.40
2022-11-22T10:54:13.931Z,67.40
2022-11-22T10:56:51.113Z,67.20
2022-11-22T10:59:45.160Z,67.20
2022-11-22T11:02:37.751Z,67.10
2022-11-22T11:05:11.182Z,67.10
2022-11-22T11:07:42.693Z,67.00
2022-11-22T11:10:29.186Z,66.20
2022-11-22T11:13:08.354Z,66.20
2022-11-22T11:15:42.532Z,66.40
2022-11-22T11:18:18.728Z,66.30
2022-11-22T11:20:47.946Z,67.10
2022-11-22T11:23:16.757Z,66.20
2022-11-22T11:25:47.706Z,66.10
2022-11-22T11:28:23.563Z,66.00
2022-11-22T11:30:55.605Z,66.00
2022-11-22T11:33:30.326Z,66.10
2022-11-22T11:36:05.474Z,66.20
2022-11-22T11:38:37.710Z,66.20
2022-11-22T11:41:22.953Z,66.30
2022-11-22T11:43:54.386Z,66.00
2022-11-22T11:46:25.387Z,66.10
2022-11-22T11:48:55.377Z,66.00
2022-11-22T11:51:31.365Z,65.90
2022-11-22T11:54:07.381Z,65.80
2022-11-22T11:56:46.697Z,65.80
2022-11-22T11:59:19.647Z,65.70
2022-11-22T12:01:55.364Z,65.80
2022-11-22T12:04:27.774Z,65.80
2022-11-22T12:07:04.113Z,65.80
2022-11-22T12:09:37.060Z,65.80
2022-11-22T12:12:36.469Z,65.60
2022-11-22T12:15:17.071Z,65.50
2022-11-22T12:17:56.136Z,65.50
2022-11-22T12:20:31.523Z,65.50
2022-11-22T12:23:14.028Z,66.10
2022-11-22T12:25:44.200Z,65.30
2022-11-22T12:28:19.524Z,65.60
2022-11-22T12:30:54.623Z,65.60
2022-11-22T12:33:31.156Z,65.50
2022-11-22T12:35:59.735Z,65.60
2022-11-22T12:38:34.251Z,65.70
2022-11-22T12:41:06.969Z,65.70
2022-11-22T12:43:40.351Z,65.60
2022-11-22T12:46:17.723Z,65.30
2022-11-22T12:48:50.515Z,65.30
2022-11-22T12:51:27.854Z,65.20
2022-11-22T12:54:02.607Z,65.20
2022-11-22T12:56:37.946Z,65.10
2022-11-22T12:59:21.089Z,64.90
2022-11-22T13:02:02.128Z,64.70
2022-11-22T13:04:42.467Z,64.80
2022-11-22T13:07:20.198Z,64.80
2022-11-22T13:09:56.405Z,64.50
2022-11-22T13:12:30.851Z,64.50
2022-11-22T13:15:01.656Z,64.50
2022-11-22T13:17:36.196Z,64.40
2022-11-22T13:20:09.083Z,64.10
2022-11-22T13:22:49.757Z,64.00
2022-11-22T13:25:50.835Z,64.00
2022-11-22T13:28:23.008Z,63.80
2022-11-22T13:31:21.973Z,64.00
2022-11-22T13:34:00.236Z,64.30
2022-11-22T13:36:51.432Z,63.60
2022-11-22T13:39:23.854Z,63.60
2022-11-22T13:42:06.133Z,63.90
2022-11-22T13:45:07.785Z,63.70
2022-11-22T13:47:44.543Z,63.70
2022-11-22T13:51:01.484Z,63.80
2022-11-22T13:53:33.451Z,63.90
2022-11-22T13:57:00.645Z,64.00
2022-11-22T13:59:29.472Z,63.90
2022-11-22T14:02:22.883Z,63.90
2022-11-22T14:04:56.339Z,63.80
2022-11-22T14:07:39.436Z,63.90
2022-11-22T14:10:29.283Z,63.90
2022-11-22T14:13:28.231Z,64.00
2022-11-22T14:16:08.647Z,63.90
2022-11-22T14:19:00.445Z,64.00
2022-11-22T14:21:51.770Z,63.80
2022-11-22T14:24:38.866Z,63.70
2022-11-22T14:27:24.947Z,63.70
2022-11-22T14:30:18.144Z,63.70
2022-11-22T14:32:55.624Z,63.70
2022-11-22T14:35:30.143Z,63.90
2022-11-22T14:38:06.683Z,63.90
2022-11-22T14:40:41.442Z,64.00
2022-11-22T14:43:33.493Z,63.90
2022-11-22T14:46:30.412Z,63.70
2022-11-22T14:49:05.023Z,64.00
2022-11-22T14:51:34.003Z,64.00
2022-11-22T14:54:18.317Z,64.00
2022-11-22T14:56:48.341Z,64.90
2022-11-22T14:59:41.246Z,64.10
2022-11-22T15:02:54.511Z,64.10
2022-11-22T15:09:11.863Z,64.00
2022-11-22T15:09:19.647Z,64.00
2022-11-22T15:11:53.669Z,64.00
2022-11-22T15:57:29.458Z,64.20
2022-11-22T15:59:59.315Z,64.20
2022-11-22T16:02:30.390Z,64.30
2022-11-22T16:06:07.807Z,64.30
2022-11-22T16:07:54.494Z,64.40
2022-11-22T16:10:25.708Z,64.30
2022-11-22T16:12:55.623Z,64.40
2022-11-22T16:15:36.118Z,64.40
2022-11-22T16:18:14.922Z,64.40
2022-11-22T16:20:43.818Z,64.40
2022-11-22T16:23:26.489Z,64.50
2022-11-22T16:26:00.003Z,64.70
2022-11-22T16:28:33.319Z,64.60
2022-11-22T16:31:06.775Z,64.70
2022-11-22T16:33:35.584Z,64.70
2022-11-22T16:36:06.989Z,64.80
2022-11-22T16:38:35.381Z,64.80
2022-11-22T16:41:04.884Z,64.80
2022-11-22T16:43:36.710Z,64.90
2022-11-22T16:46:05.634Z,65.00
2022-11-22T16:48:34.151Z,65.00
2022-11-22T16:51:07.983Z,65.20
2022-11-22T16:53:41.945Z,65.10
2022-11-22T16:56:19.558Z,65.20
2022-11-22T16:58:50.793Z,65.20
2022-11-22T17:01:22.513Z,65.20
2022-11-22T17:03:54.723Z,65.20
2022-11-22T17:06:25.497Z,65.20
2022-11-22T17:08:55.961Z,65.30
2022-11-22T17:11:27.222Z,65.30
2022-11-22T17:13:57.536Z,65.40
2022-11-22T17:16:25.950Z,65.60
2022-11-22T17:18:54.565Z,65.60
2022-11-22T17:21:31.296Z,65.70
2022-11-22T17:24:05.784Z,65.80
2022-11-22T17:26:35.039Z,65.90
2022-11-22T17:29:06.646Z,66.00
2022-11-22T17:31:37.474Z,66.20
2022-11-22T17:34:06.145Z,66.30
2022-11-22T17:36:36.962Z,66.30
2022-11-22T17:39:09.451Z,66.40
2022-11-22T17:41:38.122Z,66.40
2022-11-22T17:44:08.716Z,66.50
2022-11-22T17:46:39.825Z,66.60
2022-11-22T17:49:14.126Z,66.60
2022-11-22T17:51:44.243Z,66.70
2022-11-22T17:54:12.607Z,66.70
2022-11-22T17:56:41.066Z,66.70
2022-11-22T17:59:11.131Z,66.80
2022-11-22T18:01:39.592Z,67.70
2022-11-22T18:04:08.204Z,66.90
2022-11-22T18:06:36.577Z,67.00
2022-11-22T18:09:05.549Z,67.00
2022-11-22T18:11:34.092Z,67.10
2022-11-22T18:14:03.006Z,67.20
2022-11-22T18:16:32.933Z,67.20
2022-11-22T18:19:01.500Z,67.30
2022-11-22T18:21:32.394Z,67.30
2022-11-22T18:24:02.444Z,67.40
2022-11-22T18:26:39.237Z,67.50
2022-11-22T18:29:41.639Z,67.50
2022-11-22T18:31:59.167Z,67.60
2022-11-22T18:34:28.534Z,67.80
2022-11-22T18:39:46.554Z,68.00
2022-11-22T18:42:17.048Z,67.90
2022-11-22T18:44:46.000Z,68.00
2022-11-22T18:47:15.905Z,68.00
2022-11-22T18:49:44.401Z,68.20
2022-11-22T18:52:15.009Z,68.20
2022-11-22T18:54:46.669Z,68.20
2022-11-22T18:57:15.231Z,68.30
2022-11-22T18:59:43.618Z,68.30
2022-11-22T19:02:12.103Z,68.30
2022-11-22T19:04:41.952Z,68.30
2022-11-22T19:07:10.755Z,68.30
2022-11-22T19:09:39.142Z,68.40
2022-11-22T19:12:07.570Z,68.30
2022-11-22T19:14:36.020Z,68.40
2022-11-22T19:17:04.749Z,68.50
2022-11-22T19:19:33.202Z,68.60
2022-11-22T19:22:04.466Z,68.60
2022-11-22T19:24:33.371Z,68.70
2022-11-22T19:27:02.431Z,68.70
2022-11-22T19:29:31.147Z,68.80
2022-11-22T19:31:59.941Z,68.80
2022-11-22T19:34:31.310Z,68.90
2022-11-22T19:37:00.244Z,69.00
2022-11-22T19:39:30.436Z,68.90
2022-11-22T19:41:59.466Z,69.00
2022-11-22T19:44:27.865Z,69.10
2022-11-22T19:46:56.364Z,69.10
2022-11-22T19:49:25.483Z,69.10
2022-11-22T19:51:53.922Z,69.10
2022-11-22T19:54:22.519Z,70.00
2022-11-22T19:56:52.355Z,69.20
2022-11-22T19:59:21.158Z,69.30
2022-11-22T20:01:49.518Z,69.30
2022-11-22T20:04:18.566Z,69.30
2022-11-22T20:06:50.106Z,69.40
2022-11-22T20:09:19.017Z,69.40
2022-11-22T20:11:47.492Z,69.40
2022-11-22T20:14:17.322Z,70.30
2022-11-22T20:16:45.802Z,69.60
2022-11-22T20:19:15.331Z,69.50
2022-11-22T20:21:43.815Z,69.50
2022-11-22T20:24:13.369Z,69.60
2022-11-22T20:26:42.612Z,69.60
2022-11-22T20:29:15.190Z,69.50
2022-11-22T20:31:45.298Z,69.60
2022-11-22T20:34:15.049Z,69.70
2022-11-22T20:36:43.706Z,70.50
2022-11-22T20:39:12.186Z,69.70
2022-11-22T20:41:41.274Z,69.60
2022-11-22T20:44:14.091Z,69.60
2022-11-22T20:46:45.211Z,69.70
2022-11-22T20:49:13.890Z,69.60
2022-11-22T20:51:43.076Z,69.70
2022-11-22T20:54:12.017Z,69.70
2022-11-22T20:56:40.438Z,69.70
2022-11-22T20:59:09.389Z,69.70
2022-11-22T21:01:38.350Z,69.70
2022-11-22T21:04:08.457Z,69.70
2022-11-22T21:06:36.925Z,69.70
2022-11-22T21:09:05.660Z,69.60
2022-11-22T21:11:35.053Z,70.50
2022-11-22T21:14:03.528Z,69.70
2022-11-22T21:16:32.414Z,69.70
2022-11-22T21:19:04.911Z,69.80
2022-11-22T21:21:37.129Z,69.80
2022-11-22T21:24:08.167Z,69.90
2022-11-22T21:26:36.652Z,69.90
2022-11-22T21:29:15.932Z,69.80
2022-11-22T21:31:45.127Z,69.80
2022-11-22T21:34:13.858Z,69.80
2022-11-22T21:36:43.682Z,69.80
2022-11-22T21:39:12.020Z,69.80
2022-11-22T21:41:41.345Z,69.80
2022-11-22T21:44:10.616Z,69.80
2022-11-22T21:46:39.544Z,69.80
2022-11-22T21:49:08.513Z,69.70
2022-11-22T21:51:36.938Z,70.60
2022-11-22T21:54:09.739Z,69.80
2022-11-22T21:56:38.366Z,69.80
2022-11-22T21:59:07.020Z,69.80
2022-11-22T22:01:35.678Z,69.80
2022-11-22T22:04:04.461Z,70.00
2022-11-22T22:06:33.164Z,70.00
2022-11-22T22:09:02.085Z,70.00
2022-11-22T22:11:31.849Z,70.00
2022-11-22T22:14:00.694Z,69.90
2022-11-22T22:16:29.103Z,69.90
2022-11-22T22:18:57.804Z,69.90
2022-11-22T22:21:26.202Z,70.00
2022-11-22T22:23:56.930Z,69.80
2022-11-22T22:26:25.390Z,69.90
2022-11-22T22:28:55.826Z,70.00
2022-11-22T22:31:27.020Z,70.00
2022-11-22T22:33:57.996Z,70.00
2022-11-22T22:36:28.689Z,70.00
2022-11-22T22:38:57.175Z,70.00
2022-11-22T22:41:25.762Z,70.10
2022-11-22T22:43:55.605Z,70.00
2022-11-22T22:46:25.472Z,70.10
2022-11-22T22:48:56.171Z,70.10
2022-11-22T22:51:32.325Z,70.10
2022-11-22T22:54:02.026Z,70.10
2022-11-22T22:56:32.203Z,70.10
2022-11-22T22:59:02.318Z,70.10
2022-11-22T23:01:32.576Z,70.10
2022-11-22T23:04:02.497Z,70.10
2022-11-22T23:06:32.619Z,70.10
2022-11-22T23:09:02.340Z,70.20
2022-11-22T23:12:04.912Z,70.20
2022-11-22T23:14:35.236Z,70.20
2022-11-22T23:17:03.899Z,70.10
2022-11-22T23:19:32.651Z,70.30
2022-11-22T23:22:01.289Z,70.20
2022-11-22T23:24:32.794Z,70.30
2022-11-22T23:27:01.409Z,70.30
2022-11-22T23:29:30.250Z,70.40
2022-11-22T23:32:00.557Z,70.40
2022-11-22T23:34:28.932Z,70.50
2022-11-22T23:36:57.455Z,70.50
2022-11-22T23:39:25.770Z,70.50
2022-11-22T23:41:54.103Z,70.50
2022-11-22T23:44:22.656Z,70.50
2022-11-22T23:46:51.201Z,70.60
2022-11-22T23:49:21.076Z,70.60
2022-11-22T23:51:50.280Z,70.60
2022-11-22T23:54:18.653Z,70.70
2022-11-22T23:56:47.051Z,70.70
2022-11-22T23:59:15.463Z,71.60
